Terminal Aerodrome Forecast
Issued by NWS Charleston, WV

Home | Current Version | Previous Version | Text Only | Print | Product List | Glossary On
Versions: 1 2 3 4 5 6 7 8 9 10 11 12 13 14 15 16 17 18 19 20 21 22 23 24
000
FTUS41 KRLX 261740
TAFBKW
TAF
KBKW 261740Z 2618/2718 28012G21KT P6SM FEW035
     FM270000 26005KT P6SM FEW250
     FM270800 23009KT P6SM BKN060
     FM271200 25010KT P6SM BKN030
     FM271700 26009G15KT 2SM TSRA BKN025CB=

USA.gov is the U.S. government's official web portal to all federal, state and local government web resources and services.